createdAt,value
2022-10-08T00:01:30.013Z,101000.03
2022-10-08T00:03:53.821Z,100997.06
2022-10-08T00:06:21.935Z,100996.63
2022-10-08T00:08:49.452Z,100997.28
2022-10-08T00:11:14.486Z,100999.91
2022-10-08T00:13:41.582Z,100995.53
2022-10-08T00:16:04.181Z,100988.47
2022-10-08T00:18:26.942Z,100988.03
2022-10-08T00:20:49.296Z,100984.75
2022-10-08T00:23:11.645Z,100980.53
2022-10-08T00:25:40.507Z,100983.94
2022-10-08T00:28:03.252Z,100976.09
2022-10-08T00:30:25.690Z,100967.47
2022-10-08T00:32:48.288Z,100973.34
2022-10-08T00:35:10.883Z,100976.66
2022-10-08T00:37:33.297Z,100972.47
2022-10-08T00:39:55.676Z,100970.88
2022-10-08T00:42:18.352Z,100970.88
2022-10-08T00:44:53.661Z,100959.75
2022-10-08T00:47:33.752Z,100957.38
2022-10-08T00:49:59.395Z,100963.84
2022-10-08T00:52:21.840Z,100955.34
2022-10-08T00:54:45.051Z,100949.28
2022-10-08T00:57:08.355Z,100954.44
2022-10-08T00:59:30.591Z,100949.53
2022-10-08T01:01:54.195Z,100942.75
2022-10-08T01:04:16.641Z,100945.19
2022-10-08T01:07:19.069Z,100931.16
2022-10-08T01:10:27.086Z,100927.91
2022-10-08T01:13:14.967Z,100928.59
2022-10-08T01:15:57.814Z,100931.38
2022-10-08T01:18:47.065Z,100928.25
2022-10-08T01:21:13.638Z,100922.19
2022-10-08T01:23:54.634Z,100926.03
2022-10-08T01:26:25.634Z,100929.56
2022-10-08T01:29:32.910Z,100919.53
2022-10-08T01:32:01.919Z,100915.63
2022-10-08T01:34:28.342Z,100914.59
2022-10-08T01:36:51.474Z,100909.91
2022-10-08T01:39:17.427Z,100912.81
2022-10-08T01:41:39.883Z,100906.44
2022-10-08T01:44:18.255Z,100912.41
2022-10-08T01:46:41.894Z,100904.47
2022-10-08T01:49:08.029Z,100906.19
2022-10-08T01:51:37.037Z,100915.75
2022-10-08T01:54:02.264Z,100910.03
2022-10-08T01:56:27.504Z,100897.03
2022-10-08T01:58:55.730Z,100900.63
2022-10-08T02:01:44.538Z,100893.75
2022-10-08T02:04:25.583Z,100886.09
2022-10-08T02:06:52.956Z,100892.81
2022-10-08T02:09:15.305Z,100890.56
2022-10-08T02:11:37.674Z,100888.13
2022-10-08T02:13:59.980Z,100887.75
2022-10-08T02:16:28.593Z,100881.19
2022-10-08T02:18:58.537Z,100886.56
2022-10-08T02:21:24.703Z,100893.50
2022-10-08T02:23:53.967Z,100881.47
2022-10-08T02:26:20.520Z,100894.88
2022-10-08T02:28:58.870Z,100889.47
2022-10-08T02:31:43.660Z,100881.31
2022-10-08T02:34:25.501Z,100881.63
2022-10-08T02:36:56.862Z,100883.44
2022-10-08T02:39:19.228Z,100887.66
2022-10-08T02:41:50.802Z,100890.09
2022-10-08T02:44:31.061Z,100890.28
2022-10-08T02:46:53.488Z,100895.31
2022-10-08T02:49:25.828Z,100893.84
2022-10-08T02:51:49.478Z,100890.28
2022-10-08T02:54:11.797Z,100887.84
2022-10-08T02:56:43.842Z,100884.47
2022-10-08T02:59:06.470Z,100887.84
2022-10-08T03:01:39.394Z,100882.31
2022-10-08T03:04:19.784Z,100871.56
2022-10-08T03:06:42.113Z,100880.56
2022-10-08T03:09:06.590Z,100875.66
2022-10-08T03:11:29.402Z,100864.81
2022-10-08T03:13:51.990Z,100871.16
2022-10-08T03:16:16.234Z,100866.25
2022-10-08T03:18:38.767Z,100864.50
2022-10-08T03:21:01.085Z,100883.63
2022-10-08T03:23:24.022Z,100873.91
2022-10-08T03:25:46.331Z,100878.41
2022-10-08T03:28:08.765Z,100879.56
2022-10-08T03:30:31.124Z,100874.44
2022-10-08T03:32:53.504Z,100873.28
2022-10-08T03:35:15.927Z,100865.97
2022-10-08T03:37:38.298Z,100863.06
2022-10-08T03:40:00.639Z,100872.66
2022-10-08T03:42:22.957Z,100866.44
2022-10-08T03:44:45.314Z,100873.41
2022-10-08T03:47:07.654Z,100883.63
2022-10-08T03:49:30.013Z,100870.13
2022-10-08T03:51:52.353Z,100874.47
2022-10-08T03:54:14.675Z,100871.19
2022-10-08T03:56:36.996Z,100858.59
2022-10-08T03:58:59.757Z,100869.78
2022-10-08T04:01:22.275Z,100860.66
2022-10-08T04:03:47.471Z,100865.84
2022-10-08T04:06:09.857Z,100861.84
2022-10-08T04:08:33.127Z,100863.50
2022-10-08T04:10:55.445Z,100866.16
2022-10-08T04:13:17.944Z,100873.47
2022-10-08T04:15:40.321Z,100868.28
2022-10-08T04:18:02.882Z,100866.44
2022-10-08T04:20:25.227Z,100863.88
2022-10-08T04:22:49.037Z,100864.38
2022-10-08T04:25:11.692Z,100868.97
2022-10-08T04:27:34.003Z,100862.00
2022-10-08T04:29:56.366Z,100864.56
2022-10-08T04:32:18.712Z,100854.47
2022-10-08T04:34:41.026Z,100856.09
2022-10-08T04:37:03.374Z,100860.63
2022-10-08T04:39:25.688Z,100852.44
2022-10-08T04:41:48.026Z,100848.75
2022-10-08T04:44:10.353Z,100843.44
2022-10-08T04:46:32.791Z,100846.34
2022-10-08T04:48:56.434Z,100847.81
2022-10-08T04:51:19.271Z,100854.16
2022-10-08T04:53:41.842Z,100850.56
2022-10-08T04:56:12.454Z,100855.47
2022-10-08T04:58:34.807Z,100847.72
2022-10-08T05:00:57.140Z,100847.72
2022-10-08T05:03:19.458Z,100846.19
2022-10-08T05:05:42.832Z,100845.06
2022-10-08T05:08:05.075Z,100842.00
2022-10-08T05:10:27.472Z,100841.16
2022-10-08T05:12:50.352Z,100841.78
2022-10-08T05:15:12.695Z,100844.34
2022-10-08T05:17:35.304Z,100842.53
2022-10-08T05:19:57.642Z,100842.22
2022-10-08T05:22:20.025Z,100830.38
2022-10-08T05:24:42.398Z,100841.78
2022-10-08T05:27:04.855Z,100844.22
2022-10-08T05:29:28.833Z,100840.06
2022-10-08T05:31:51.159Z,100843.59
2022-10-08T05:34:13.983Z,100847.72
2022-10-08T05:36:36.342Z,100841.56
2022-10-08T05:39:03.240Z,100832.13
2022-10-08T05:41:27.871Z,100829.56
2022-10-08T05:43:50.379Z,100839.28
2022-10-08T05:46:12.786Z,100845.63
2022-10-08T05:48:35.669Z,100848.06
2022-10-08T05:51:05.631Z,100848.59
2022-10-08T05:53:28.029Z,100852.94
2022-10-08T05:55:59.584Z,100849.25
2022-10-08T05:58:21.943Z,100855.59
2022-10-08T06:00:44.273Z,100848.34
2022-10-08T06:03:06.673Z,100854.53
2022-10-08T06:05:29.118Z,100853.09
2022-10-08T06:07:52.988Z,100866.47
2022-10-08T06:10:15.433Z,100869.53
2022-10-08T06:12:37.789Z,100861.63
2022-10-08T06:15:00.178Z,100850.44
2022-10-08T06:17:22.796Z,100859.09
2022-10-08T06:19:45.254Z,100840.59
2022-10-08T06:22:08.627Z,100838.38
2022-10-08T06:24:30.973Z,100839.03
2022-10-08T06:26:53.429Z,100844.31
2022-10-08T06:29:17.610Z,100836.38
2022-10-08T06:31:40.070Z,100824.03
2022-10-08T06:34:05.509Z,100826.31
2022-10-08T06:36:28.706Z,100844.28
2022-10-08T06:39:01.392Z,100838.13
2022-10-08T06:41:24.617Z,100834.25
2022-10-08T06:43:47.001Z,100845.16
2022-10-08T06:46:09.476Z,100852.34
2022-10-08T06:48:31.977Z,100850.38
2022-10-08T06:51:07.891Z,100837.22
2022-10-08T06:53:30.654Z,100833.78
2022-10-08T06:56:00.346Z,100834.59
2022-10-08T06:58:22.973Z,100848.13
2022-10-08T07:00:45.453Z,100839.47
2022-10-08T07:03:07.811Z,100845.47
2022-10-08T07:05:30.199Z,100846.63
2022-10-08T07:07:52.542Z,100844.16
2022-10-08T07:10:18.387Z,100835.34
2022-10-08T07:12:41.010Z,100836.91
2022-10-08T07:15:03.441Z,100832.97
2022-10-08T07:17:28.834Z,100838.19
2022-10-08T07:19:51.284Z,100832.94
2022-10-08T07:22:13.653Z,100832.59
2022-10-08T07:24:36.058Z,100827.44
2022-10-08T07:26:58.411Z,100825.28
2022-10-08T07:29:20.746Z,100826.63
2022-10-08T07:31:43.266Z,100826.59
2022-10-08T07:34:08.378Z,100833.66
2022-10-08T07:36:30.917Z,100827.34
2022-10-08T07:39:16.136Z,100839.34
2022-10-08T07:41:38.495Z,100837.44
2022-10-08T07:44:01.957Z,100825.94
2022-10-08T07:46:24.906Z,100836.50
2022-10-08T07:48:47.416Z,100837.09
2022-10-08T07:51:14.437Z,100838.31
2022-10-08T07:53:37.079Z,100839.03
2022-10-08T07:55:59.474Z,100837.09
2022-10-08T07:58:21.869Z,100829.47
2022-10-08T08:00:44.343Z,100831.31
2022-10-08T08:03:06.819Z,100834.00
2022-10-08T08:05:29.156Z,100825.09
2022-10-08T08:07:53.333Z,100838.44
2022-10-08T08:10:16.112Z,100839.50
2022-10-08T08:12:38.511Z,100844.34
2022-10-08T08:15:00.870Z,100833.69
2022-10-08T08:17:23.213Z,100831.25
2022-10-08T08:19:45.940Z,100822.53
2022-10-08T08:22:08.286Z,100822.22
2022-10-08T08:24:30.633Z,100819.88
2022-10-08T08:26:55.593Z,100820.13
2022-10-08T08:29:20.117Z,100820.34
2022-10-08T08:31:47.531Z,100817.09
2022-10-08T08:34:13.057Z,100813.72
2022-10-08T08:36:40.738Z,100824.78
2022-10-08T08:39:03.391Z,100815.56
2022-10-08T08:42:12.592Z,100823.44
2022-10-08T08:44:49.417Z,100822.47
2022-10-08T08:47:22.236Z,100824.19
2022-10-08T08:50:01.403Z,100824.94
2022-10-08T08:52:26.195Z,100819.41
2022-10-08T08:54:53.341Z,100821.63
2022-10-08T08:57:38.641Z,100817.16
2022-10-08T09:00:06.631Z,100824.28
2022-10-08T09:02:39.344Z,100829.63
2022-10-08T09:05:08.936Z,100834.94
2022-10-08T09:07:43.409Z,100830.69
2022-10-08T09:10:09.489Z,100827.72
2022-10-08T09:12:39.603Z,100828.19
2022-10-08T09:15:02.111Z,100823.91
2022-10-08T09:17:33.221Z,100813.44
2022-10-08T09:19:55.664Z,100810.97
2022-10-08T09:22:24.844Z,100813.06
2022-10-08T09:24:50.958Z,100806.88
2022-10-08T09:27:14.889Z,100810.28
2022-10-08T09:29:37.628Z,100811.16
2022-10-08T09:32:00.107Z,100816.91
2022-10-08T09:34:22.613Z,100808.06
2022-10-08T09:36:51.216Z,100817.63
2022-10-08T09:39:20.714Z,100809.31
2022-10-08T09:41:44.668Z,100804.78
2022-10-08T09:44:14.575Z,100803.09
2022-10-08T09:46:36.919Z,100805.50
2022-10-08T09:49:31.387Z,100800.44
2022-10-08T09:51:53.826Z,100799.09
2022-10-08T09:54:21.866Z,100810.25
2022-10-08T09:56:44.435Z,100811.00
2022-10-08T09:59:07.121Z,100804.03
2022-10-08T10:01:31.589Z,100799.06
2022-10-08T10:03:59.251Z,100793.25
2022-10-08T10:06:37.269Z,100804.03
2022-10-08T10:09:23.533Z,100797.19
2022-10-08T10:11:56.984Z,100793.84
2022-10-08T10:14:28.332Z,100810.00
2022-10-08T10:16:56.656Z,100800.00
2022-10-08T10:19:21.986Z,100798.81
2022-10-08T10:22:03.959Z,100816.97
2022-10-08T10:24:32.213Z,100806.97
2022-10-08T10:26:56.942Z,100810.78
2022-10-08T10:29:24.823Z,100814.38
2022-10-08T10:32:23.759Z,100812.31
2022-10-08T10:34:59.991Z,100805.13
2022-10-08T10:37:34.522Z,100825.00
2022-10-08T10:40:32.109Z,100829.19
2022-10-08T10:43:38.773Z,100814.41
2022-10-08T10:46:24.402Z,100798.06
2022-10-08T10:48:46.881Z,100782.59
2022-10-08T10:51:33.751Z,100792.16
2022-10-08T10:54:20.954Z,100781.34
2022-10-08T10:56:58.148Z,100797.16
2022-10-08T10:59:45.329Z,100794.88
2022-10-08T11:02:26.022Z,100806.22
2022-10-08T11:05:26.567Z,100788.69
2022-10-08T11:08:27.254Z,100794.97
2022-10-08T11:11:10.675Z,100807.28
2022-10-08T11:14:21.798Z,100794.69
2022-10-08T11:16:57.914Z,100795.63
2022-10-08T11:19:41.942Z,100799.16
2022-10-08T11:22:20.298Z,100781.47
2022-10-08T11:25:49.481Z,100778.47
2022-10-08T11:28:54.886Z,100790.22
2022-10-08T11:31:43.730Z,100785.63
2022-10-08T11:34:06.102Z,100801.78
2022-10-08T11:36:46.936Z,100787.41
2022-10-08T11:39:26.563Z,100782.47
2022-10-08T11:42:13.999Z,100792.34
2022-10-08T11:44:37.430Z,100776.72
2022-10-08T11:47:43.684Z,100774.25
2022-10-08T11:50:06.426Z,100778.28
2022-10-08T11:52:30.546Z,100774.25
2022-10-08T11:54:55.824Z,100768.41
2022-10-08T11:57:49.361Z,100769.66
2022-10-08T12:00:32.959Z,100796.84
2022-10-08T12:02:55.420Z,100789.38
2022-10-08T12:05:23.944Z,100766.75
2022-10-08T12:07:57.598Z,100780.44
2022-10-08T12:10:19.857Z,100770.28
2022-10-08T12:12:51.623Z,100780.16
2022-10-08T12:15:27.923Z,100783.94
2022-10-08T12:18:26.342Z,100781.81
2022-10-08T12:21:17.750Z,100780.47
2022-10-08T12:23:40.195Z,100783.78
2022-10-08T12:26:08.935Z,100760.38
2022-10-08T12:28:35.614Z,100766.81
2022-10-08T12:31:02.757Z,100759.19
2022-10-08T12:33:25.738Z,100783.56
2022-10-08T12:36:05.106Z,100765.47
2022-10-08T12:38:57.846Z,100766.72
2022-10-08T12:41:30.222Z,100781.63
2022-10-08T12:44:24.143Z,100778.41
2022-10-08T12:47:04.782Z,100760.16
2022-10-08T12:49:43.901Z,100770.31
2022-10-08T12:52:20.117Z,100771.00
2022-10-08T12:54:54.280Z,100771.44
2022-10-08T12:57:41.321Z,100773.72
2022-10-08T13:00:09.097Z,100760.53
2022-10-08T13:02:43.507Z,100761.41
2022-10-08T13:05:23.188Z,100761.25
2022-10-08T13:07:45.898Z,100754.06
2022-10-08T13:10:37.990Z,100743.81
2022-10-08T13:13:05.574Z,100756.41
2022-10-08T13:15:28.033Z,100752.00
2022-10-08T13:17:50.674Z,100747.44
2022-10-08T13:20:18.306Z,100761.63
2022-10-08T13:22:40.719Z,100758.47
2022-10-08T13:25:05.390Z,100763.47
2022-10-08T13:27:30.224Z,100761.94
2022-10-08T13:29:53.168Z,100766.56
2022-10-08T13:32:16.154Z,100779.38
2022-10-08T13:34:43.761Z,100762.69
2022-10-08T13:37:31.826Z,100765.47
2022-10-08T13:40:11.359Z,100772.59
2022-10-08T13:42:41.616Z,100762.69
2022-10-08T13:45:05.094Z,100759.06
2022-10-08T13:47:28.316Z,100771.44
2022-10-08T13:49:50.689Z,100764.50
2022-10-08T13:52:21.573Z,100766.88
2022-10-08T13:54:44.217Z,100771.00
2022-10-08T13:57:06.605Z,100771.56
2022-10-08T13:59:30.896Z,100769.50
2022-10-08T14:01:53.590Z,100783.91
2022-10-08T14:04:16.371Z,100818.13
2022-10-08T14:06:39.242Z,100781.69
2022-10-08T14:09:01.597Z,100788.03
2022-10-08T14:11:24.216Z,100779.47
2022-10-08T14:13:46.561Z,100785.56
2022-10-08T14:16:12.526Z,100780.56
2022-10-08T14:18:35.002Z,100780.72
2022-10-08T14:20:57.357Z,100796.88
2022-10-08T14:23:20.369Z,100793.72
2022-10-08T14:25:42.672Z,100786.06
2022-10-08T14:28:05.123Z,100777.81
2022-10-08T14:30:27.932Z,100784.78
2022-10-08T14:32:50.283Z,100778.97
2022-10-08T14:35:12.776Z,100776.41
2022-10-08T14:37:35.540Z,100780.06
2022-10-08T14:39:57.945Z,100781.31
2022-10-08T14:42:20.306Z,100778.66
2022-10-08T14:44:42.661Z,100799.00
2022-10-08T14:47:05.065Z,100785.69
2022-10-08T14:49:27.427Z,100785.44
2022-10-08T14:51:49.794Z,100784.19
2022-10-08T14:54:12.183Z,100775.84
2022-10-08T14:56:35.480Z,100782.56
2022-10-08T14:58:57.888Z,100787.16
2022-10-08T15:01:20.295Z,100791.22
2022-10-08T15:03:45.737Z,100795.56
2022-10-08T15:06:08.195Z,100794.38
2022-10-08T15:08:30.503Z,100788.47
2022-10-08T15:10:52.970Z,100785.38
2022-10-08T15:13:15.325Z,100795.22
2022-10-08T15:15:44.265Z,100788.91
2022-10-08T15:18:06.963Z,100801.03
2022-10-08T15:20:30.050Z,100789.84
2022-10-08T15:22:52.377Z,100782.44
2022-10-08T15:25:14.881Z,100785.31
2022-10-08T15:27:37.219Z,100799.97
2022-10-08T15:29:59.577Z,100805.50
2022-10-08T15:32:24.481Z,100798.56
2022-10-08T15:34:49.501Z,100812.03
2022-10-08T15:37:12.006Z,100812.59
2022-10-08T15:39:36.013Z,100800.53
2022-10-08T15:41:58.541Z,100802.56
2022-10-08T15:44:26.042Z,100800.75
2022-10-08T15:46:50.105Z,100809.03
2022-10-08T15:49:12.589Z,100808.88
2022-10-08T15:51:35.060Z,100797.91
2022-10-08T15:53:59.028Z,100801.50
2022-10-08T15:56:21.381Z,100806.56
2022-10-08T15:58:50.691Z,100807.09
2022-10-08T16:01:15.814Z,100807.81
2022-10-08T16:03:40.015Z,100799.72
2022-10-08T16:06:02.656Z,100816.75
2022-10-08T16:08:25.007Z,100818.63
2022-10-08T16:10:47.442Z,100814.13
2022-10-08T16:13:09.810Z,100820.06
2022-10-08T16:15:36.937Z,100824.19
2022-10-08T16:17:59.391Z,100829.69
2022-10-08T16:20:21.755Z,100840.69
2022-10-08T16:22:44.066Z,100843.25
2022-10-08T16:25:06.630Z,100835.47
2022-10-08T16:27:28.994Z,100835.03
2022-10-08T16:29:51.346Z,100840.41
2022-10-08T16:32:13.729Z,100840.09
2022-10-08T16:34:36.071Z,100848.13
2022-10-08T16:37:00.526Z,100851.25
2022-10-08T16:39:24.487Z,100858.47
2022-10-08T16:41:47.478Z,100860.81
2022-10-08T16:44:13.288Z,100858.81
2022-10-08T16:46:38.610Z,100861.69
2022-10-08T16:49:21.286Z,100869.28
2022-10-08T16:51:47.817Z,100875.34
2022-10-08T16:54:13.057Z,100873.59
2022-10-08T16:56:37.647Z,100882.34
2022-10-08T16:59:07.175Z,100883.38
2022-10-08T17:01:29.721Z,100880.59
2022-10-08T17:03:52.450Z,100890.97
2022-10-08T17:06:15.510Z,100891.56
2022-10-08T17:08:37.895Z,100907.38
2022-10-08T17:11:04.888Z,100904.16
2022-10-08T17:13:27.239Z,100925.75
2022-10-08T17:16:03.762Z,100913.66
2022-10-08T17:18:27.811Z,100913.09
2022-10-08T17:20:50.125Z,100914.50
2022-10-08T17:23:12.515Z,100920.88
2022-10-08T17:25:34.882Z,100918.56
2022-10-08T17:27:57.228Z,100927.34
2022-10-08T17:30:19.576Z,100922.94
2022-10-08T17:32:42.067Z,100930.34
2022-10-08T17:35:06.131Z,100931.50
2022-10-08T17:37:28.480Z,100942.88
2022-10-08T17:39:50.959Z,100949.13
2022-10-08T17:42:13.343Z,100946.91
2022-10-08T17:44:35.752Z,100964.09
2022-10-08T17:46:58.178Z,100963.69
2022-10-08T17:49:20.993Z,100961.84
2022-10-08T17:51:43.733Z,100972.72
2022-10-08T17:54:08.417Z,100977.81
2022-10-08T17:56:30.905Z,100977.22
2022-10-08T17:58:53.472Z,100979.38
2022-10-08T18:01:19.338Z,100989.84
2022-10-08T18:03:43.266Z,100984.75
2022-10-08T18:06:06.720Z,100990.06
2022-10-08T18:08:29.151Z,100999.78
2022-10-08T18:10:51.678Z,100981.66
2022-10-08T18:13:14.147Z,100994.84
2022-10-08T18:15:37.158Z,100983.56
2022-10-08T18:17:59.853Z,100986.22
2022-10-08T18:20:22.298Z,101001.94
2022-10-08T18:22:44.695Z,100999.84
2022-10-08T18:25:07.640Z,101010.16
2022-10-08T18:27:30.071Z,101003.84
2022-10-08T18:29:52.589Z,101009.75
2022-10-08T18:32:15.095Z,101004.72
2022-10-08T18:34:37.621Z,101014.22
2022-10-08T18:37:00.309Z,101014.28
2022-10-08T18:39:28.253Z,101014.78
2022-10-08T18:41:51.461Z,101003.50
2022-10-08T18:44:17.050Z,101022.16
2022-10-08T18:46:39.592Z,101021.06
2022-10-08T18:49:02.628Z,101005.53
2022-10-08T18:51:26.689Z,101016.84
2022-10-08T18:53:49.830Z,101025.03
2022-10-08T18:56:34.377Z,101019.66
2022-10-08T18:59:01.861Z,101028.34
2022-10-08T19:01:26.668Z,101026.09
2022-10-08T19:03:51.119Z,101026.13
2022-10-08T19:06:13.521Z,101027.13
2022-10-08T19:08:35.904Z,101025.97
2022-10-08T19:10:58.370Z,101031.09
2022-10-08T19:13:20.912Z,101029.00
2022-10-08T19:15:43.334Z,101047.81
2022-10-08T19:18:06.567Z,101040.59
2022-10-08T19:20:29.004Z,101040.75
2022-10-08T19:22:51.461Z,101038.66
2022-10-08T19:25:13.962Z,101049.28
2022-10-08T19:27:36.385Z,101044.38
2022-10-08T19:29:59.196Z,101037.88
2022-10-08T19:32:21.549Z,101051.41
2022-10-08T19:34:44.001Z,101061.38
2022-10-08T19:37:06.563Z,101063.81
2022-10-08T19:39:30.965Z,101056.50
2022-10-08T19:41:53.373Z,101051.25
2022-10-08T19:44:16.755Z,101063.69
2022-10-08T19:46:39.334Z,101070.38
2022-10-08T19:49:03.895Z,101066.94
2022-10-08T19:51:28.215Z,101073.81
2022-10-08T19:53:50.969Z,101082.56
2022-10-08T19:56:13.974Z,101068.88
2022-10-08T19:58:37.546Z,101079.50
2022-10-08T20:01:01.356Z,101095.13
2022-10-08T20:03:23.684Z,101078.66
2022-10-08T20:05:46.119Z,101101.34
2022-10-08T20:08:08.648Z,101092.50
2022-10-08T20:10:31.001Z,101100.66
2022-10-08T20:12:54.701Z,101111.06
2022-10-08T20:15:17.149Z,101110.91
2022-10-08T20:17:39.514Z,101116.25
2022-10-08T20:20:27.817Z,101123.28
2022-10-08T20:22:44.555Z,101114.31
2022-10-08T20:25:07.186Z,101131.56
2022-10-08T20:27:29.618Z,101126.34
2022-10-08T20:29:52.006Z,101119.81
2022-10-08T20:32:14.376Z,101130.41
2022-10-08T20:34:36.824Z,101136.91
2022-10-08T20:37:01.556Z,101131.69
2022-10-08T20:39:24.162Z,101131.69
2022-10-08T20:41:46.568Z,101128.09
2022-10-08T20:44:09.019Z,101141.78
2022-10-08T20:46:33.118Z,101138.84
2022-10-08T20:48:55.777Z,101141.91
2022-10-08T20:51:20.543Z,101149.72
2022-10-08T20:54:00.963Z,101144.50
2022-10-08T20:56:23.594Z,101151.50
2022-10-08T20:58:46.325Z,101154.59
2022-10-08T21:01:26.356Z,101144.47
2022-10-08T21:03:48.716Z,101162.84
2022-10-08T21:06:17.229Z,101148.03
2022-10-08T21:08:40.862Z,101153.03
2022-10-08T21:11:04.082Z,101141.97
2022-10-08T21:13:26.497Z,101147.31
2022-10-08T21:15:48.983Z,101152.84
2022-10-08T21:18:11.388Z,101155.44
2022-10-08T21:20:36.960Z,101154.44
2022-10-08T21:22:59.354Z,101175.25
2022-10-08T21:25:21.849Z,101162.06
2022-10-08T21:27:45.825Z,101163.06
2022-10-08T21:30:09.303Z,101171.38
2022-10-08T21:32:31.676Z,101166.66
2022-10-08T21:34:54.147Z,101166.78
2022-10-08T21:37:16.495Z,101175.09
2022-10-08T21:39:38.904Z,101169.38
2022-10-08T21:42:01.336Z,101177.97
2022-10-08T21:44:24.028Z,101178.59
2022-10-08T21:46:46.532Z,101167.53
2022-10-08T21:49:13.153Z,101191.97
2022-10-08T21:51:35.865Z,101196.66
2022-10-08T21:54:00.408Z,101182.50
2022-10-08T21:56:28.606Z,101176.09
2022-10-08T21:58:55.788Z,101190.44
2022-10-08T22:01:27.845Z,101187.69
2022-10-08T22:04:00.305Z,101196.91
2022-10-08T22:06:22.988Z,101216.91
2022-10-08T22:08:45.607Z,101200.13
2022-10-08T22:11:08.116Z,101203.84
2022-10-08T22:13:30.562Z,101210.00
2022-10-08T22:15:57.575Z,101203.31
2022-10-08T22:18:20.102Z,101216.66
2022-10-08T22:20:42.533Z,101222.00
2022-10-08T22:23:04.905Z,101227.03
2022-10-08T22:25:27.278Z,101213.06
2022-10-08T22:27:49.611Z,101225.06
2022-10-08T22:30:12.198Z,101222.81
2022-10-08T22:32:34.527Z,101233.50
2022-10-08T22:34:57.083Z,101239.31
2022-10-08T22:37:19.408Z,101242.50
2022-10-08T22:39:41.814Z,101229.31
2022-10-08T22:42:04.503Z,101232.19
2022-10-08T22:44:26.969Z,101244.38
2022-10-08T22:46:49.326Z,101235.88
2022-10-08T22:49:12.580Z,101243.47
2022-10-08T22:51:34.975Z,101246.84
2022-10-08T22:53:57.482Z,101241.09
2022-10-08T22:56:23.151Z,101244.28
2022-10-08T22:58:46.287Z,101248.78
2022-10-08T23:01:11.344Z,101244.91
2022-10-08T23:03:34.217Z,101246.63
2022-10-08T23:06:06.342Z,101246.13
2022-10-08T23:08:28.833Z,101252.16
2022-10-08T23:10:56.431Z,101248.69
2022-10-08T23:13:18.732Z,101261.16
2022-10-08T23:15:41.152Z,101246.94
2022-10-08T23:18:03.614Z,101250.31
2022-10-08T23:20:25.962Z,101257.28
2022-10-08T23:22:48.617Z,101254.19
2022-10-08T23:25:11.140Z,101264.31
2022-10-08T23:27:33.516Z,101268.22
2022-10-08T23:29:56.326Z,101276.78
2022-10-08T23:32:18.767Z,101285.47
2022-10-08T23:34:41.096Z,101286.59
2022-10-08T23:37:03.440Z,101293.25
2022-10-08T23:39:25.845Z,101291.59
2022-10-08T23:41:48.316Z,101301.31
2022-10-08T23:44:11.499Z,101297.22
2022-10-08T23:46:34.002Z,101300.59
2022-10-08T23:48:57.194Z,101294.84
2022-10-08T23:51:20.371Z,101303.81
2022-10-08T23:53:43.383Z,101303.81
2022-10-08T23:56:06.327Z,101317.09
2022-10-08T23:58:28.689Z,101316.06
